createdAt,value
2019-05-11T00:01:33.597Z,33.67
2019-05-11T00:04:03.290Z,34.80
2019-05-11T00:06:32.710Z,35.03
2019-05-11T00:09:02.131Z,33.20
2019-05-11T00:11:31.506Z,34.33
2019-05-11T00:14:00.858Z,33.70
2019-05-11T00:16:30.176Z,35.17
2019-05-11T00:18:59.738Z,34.80
2019-05-11T00:21:29.424Z,34.87
2019-05-11T00:23:58.718Z,34.67
2019-05-11T00:26:27.970Z,34.73
2019-05-11T00:28:57.329Z,34.47
2019-05-11T00:31:26.567Z,35.50
2019-05-11T00:33:56.352Z,34.23
2019-05-11T00:36:25.565Z,36.60
2019-05-11T00:38:54.729Z,36.37
2019-05-11T00:41:24.295Z,35.77
2019-05-11T00:43:53.855Z,35.53
2019-05-11T00:46:23.037Z,36.17
2019-05-11T00:48:52.223Z,36.37
2019-05-11T00:51:21.391Z,36.97
2019-05-11T00:53:50.860Z,36.33
2019-05-11T00:56:20.109Z,36.83
2019-05-11T00:58:50.996Z,37.03
2019-05-11T01:01:20.635Z,38.13
2019-05-11T01:03:49.859Z,37.80
2019-05-11T01:06:19.100Z,35.47
2019-05-11T01:08:48.602Z,37.70
2019-05-11T01:11:17.904Z,35.80
2019-05-11T01:13:47.064Z,37.10
2019-05-11T01:16:16.596Z,36.87
2019-05-11T01:18:46.005Z,38.50
2019-05-11T01:21:15.523Z,38.57
2019-05-11T01:23:44.668Z,38.53
2019-05-11T01:26:13.913Z,39.10
2019-05-11T01:28:43.059Z,38.87
2019-05-11T01:31:12.300Z,41.30
2019-05-11T01:33:41.735Z,40.23
2019-05-11T01:36:11.487Z,39.90
2019-05-11T01:38:41.256Z,39.23
2019-05-11T01:41:10.878Z,40.90
2019-05-11T01:43:40.194Z,40.70
2019-05-11T01:46:09.554Z,41.10
2019-05-11T01:48:39.059Z,40.67
2019-05-11T01:51:08.401Z,41.60
2019-05-11T01:53:37.980Z,42.63
2019-05-11T01:56:07.653Z,41.30
2019-05-11T01:58:37.074Z,41.87
2019-05-11T02:01:06.496Z,40.90
2019-05-11T02:03:35.921Z,42.93
2019-05-11T02:06:05.510Z,40.87
2019-05-11T02:08:35.612Z,40.87
2019-05-11T02:11:15.581Z,40.97
2019-05-11T02:13:36.194Z,40.80
2019-05-11T02:16:05.540Z,42.00
2019-05-11T02:18:34.699Z,40.33
2019-05-11T02:21:03.932Z,41.37
2019-05-11T02:23:33.192Z,40.50
2019-05-11T02:26:02.438Z,39.40
2019-05-11T02:28:31.615Z,40.13
2019-05-11T02:31:00.795Z,38.80
2019-05-11T02:33:30.313Z,39.00
2019-05-11T02:35:59.841Z,39.87
2019-05-11T02:38:29.313Z,38.23
2019-05-11T02:40:58.788Z,39.07
2019-05-11T02:43:28.337Z,38.27
2019-05-11T02:45:57.494Z,38.17
2019-05-11T02:48:26.678Z,37.90
2019-05-11T02:50:56.832Z,39.63
2019-05-11T02:53:27.307Z,36.33
2019-05-11T02:55:57.099Z,37.73
2019-05-11T02:58:26.252Z,36.03
2019-05-11T03:00:55.838Z,35.53
2019-05-11T03:03:25.073Z,35.77
2019-05-11T03:05:54.579Z,34.30
2019-05-11T03:08:24.183Z,35.03
2019-05-11T03:10:53.382Z,34.63
2019-05-11T03:13:22.570Z,34.43
2019-05-11T03:15:52.297Z,35.77
2019-05-11T03:18:21.521Z,34.03
2019-05-11T03:20:51.473Z,34.90
2019-05-11T03:23:20.701Z,33.83
2019-05-11T03:25:49.866Z,34.33
2019-05-11T03:28:19.031Z,33.93
2019-05-11T03:30:48.219Z,32.93
2019-05-11T03:33:17.889Z,34.97
2019-05-11T03:35:47.133Z,33.73
2019-05-11T03:38:16.376Z,34.07
2019-05-11T03:40:45.700Z,35.60
2019-05-11T03:43:15.164Z,35.97
2019-05-11T03:45:48.900Z,34.43
2019-05-11T03:48:18.310Z,34.70
2019-05-11T03:50:47.472Z,35.37
2019-05-11T03:53:16.631Z,36.20
2019-05-11T03:55:46.499Z,36.13
2019-05-11T03:58:16.008Z,36.20
2019-05-11T04:00:45.189Z,36.00
2019-05-11T04:03:14.379Z,35.03
2019-05-11T04:05:43.555Z,35.90
2019-05-11T04:08:13.007Z,35.10
2019-05-11T04:10:42.215Z,36.57
2019-05-11T04:13:11.456Z,36.43
2019-05-11T04:15:40.710Z,36.93
2019-05-11T04:18:10.181Z,37.00
2019-05-11T04:20:39.398Z,37.43
2019-05-11T04:23:08.977Z,38.07
2019-05-11T04:25:38.171Z,37.87
2019-05-11T04:28:07.330Z,38.23
2019-05-11T04:30:36.490Z,39.37
2019-05-11T04:33:06.092Z,41.00
2019-05-11T04:35:35.318Z,40.83
2019-05-11T04:38:05.013Z,39.40
2019-05-11T04:40:34.225Z,41.37
2019-05-11T04:43:03.406Z,40.50
2019-05-11T04:45:32.560Z,40.90
2019-05-11T04:48:02.075Z,41.43
2019-05-11T04:50:31.252Z,41.10
2019-05-11T04:53:00.520Z,40.10
2019-05-11T04:55:30.686Z,41.97
2019-05-11T04:58:00.084Z,40.13
2019-05-11T05:00:29.696Z,39.73
2019-05-11T05:02:59.112Z,39.27
2019-05-11T05:05:28.560Z,40.50
2019-05-11T05:08:09.161Z,40.20
2019-05-11T05:10:30.044Z,39.10
2019-05-11T05:13:10.106Z,41.10
2019-05-11T05:15:30.406Z,39.67
2019-05-11T05:17:59.796Z,40.60
2019-05-11T05:20:29.145Z,39.53
2019-05-11T05:22:58.545Z,39.33
2019-05-11T05:25:27.886Z,38.87
2019-05-11T05:27:57.634Z,39.53
2019-05-11T05:30:26.896Z,39.10
2019-05-11T05:32:56.058Z,38.93
2019-05-11T05:35:25.320Z,38.43
2019-05-11T05:37:54.523Z,38.13
2019-05-11T05:40:23.704Z,37.07
2019-05-11T05:42:52.945Z,38.37
2019-05-11T05:45:22.209Z,36.67
2019-05-11T05:47:51.475Z,37.73
2019-05-11T05:50:21.323Z,36.60
2019-05-11T05:52:50.858Z,37.30
2019-05-11T05:55:20.191Z,37.53
2019-05-11T05:57:49.416Z,37.83
2019-05-11T06:00:19.553Z,37.17
2019-05-11T06:02:49.058Z,38.20
2019-05-11T06:05:18.559Z,36.50
2019-05-11T06:07:47.703Z,37.53
2019-05-11T06:10:17.749Z,37.10
2019-05-11T06:12:47.262Z,35.13
2019-05-11T06:15:16.701Z,33.77
2019-05-11T06:17:46.178Z,33.30
2019-05-11T06:20:15.751Z,34.47
2019-05-11T06:22:44.989Z,34.20
2019-05-11T06:25:14.868Z,32.13
2019-05-11T06:27:44.480Z,32.03
2019-05-11T06:30:14.347Z,32.57
2019-05-11T06:32:43.528Z,32.20
2019-05-11T06:35:13.634Z,33.47
2019-05-11T06:37:42.958Z,32.83
2019-05-11T06:40:12.508Z,31.40
2019-05-11T06:42:42.146Z,32.80
2019-05-11T06:45:11.662Z,32.90
2019-05-11T06:47:40.866Z,31.43
2019-05-11T06:50:10.726Z,32.37
2019-05-11T06:52:39.930Z,32.57
2019-05-11T06:55:09.104Z,31.90
2019-05-11T06:57:38.279Z,30.57
2019-05-11T07:00:08.417Z,29.97
2019-05-11T07:02:38.280Z,30.67
2019-05-11T07:05:08.274Z,30.80
2019-05-11T07:07:46.999Z,29.70
2019-05-11T07:10:09.012Z,27.83
2019-05-11T07:12:38.530Z,29.13
2019-05-11T07:15:08.479Z,29.17
2019-05-11T07:17:37.949Z,27.80
2019-05-11T07:20:08.075Z,29.00
2019-05-11T07:22:37.506Z,28.73
2019-05-11T07:25:07.431Z,27.27
2019-05-11T07:27:36.989Z,28.40
2019-05-11T07:30:06.724Z,25.77
2019-05-11T07:32:38.208Z,26.40
2019-05-11T07:35:08.434Z,24.63
2019-05-11T07:37:38.700Z,24.67
2019-05-11T07:40:08.794Z,24.27
2019-05-11T07:42:38.449Z,23.93
2019-05-11T07:45:09.073Z,22.77
2019-05-11T07:47:38.805Z,23.00
2019-05-11T07:50:09.765Z,23.53
2019-05-11T07:52:39.717Z,22.37
2019-05-11T07:55:10.021Z,22.93
2019-05-11T07:57:39.460Z,23.83
2019-05-11T08:00:09.834Z,23.43
2019-05-11T08:02:39.344Z,23.10
2019-05-11T08:05:08.883Z,23.57
2019-05-11T08:07:38.339Z,24.67
2019-05-11T08:10:08.537Z,24.80
2019-05-11T08:12:39.042Z,25.20
2019-05-11T08:15:13.202Z,25.50
2019-05-11T08:17:40.374Z,25.93
2019-05-11T08:20:10.103Z,24.73
2019-05-11T08:22:39.330Z,25.47
2019-05-11T08:25:09.318Z,23.70
2019-05-11T08:27:39.016Z,21.70
2019-05-11T08:30:09.864Z,23.20
2019-05-11T08:32:39.662Z,23.33
2019-05-11T08:35:10.461Z,22.70
2019-05-11T08:37:39.719Z,21.53
2019-05-11T08:40:09.245Z,22.00
2019-05-11T08:42:38.428Z,20.03
2019-05-11T08:45:18.976Z,20.47
2019-05-11T08:47:39.502Z,20.43
2019-05-11T08:50:09.423Z,17.90
2019-05-11T08:52:38.959Z,16.90
2019-05-11T08:55:08.487Z,17.37
2019-05-11T08:57:38.822Z,16.83
2019-05-11T09:00:13.519Z,18.97
2019-05-11T09:02:46.604Z,20.53
2019-05-11T09:05:15.661Z,21.40
2019-05-11T09:07:45.194Z,21.83
2019-05-11T09:10:14.826Z,20.20
2019-05-11T09:12:44.208Z,21.70
2019-05-11T09:15:28.884Z,20.97
2019-05-11T09:17:45.074Z,21.27
2019-05-11T09:20:15.082Z,21.47
2019-05-11T09:22:45.016Z,22.17
2019-05-11T09:25:14.413Z,21.20
2019-05-11T09:27:43.696Z,20.07
2019-05-11T09:30:14.614Z,19.97
2019-05-11T09:32:43.835Z,19.83
2019-05-11T09:35:13.152Z,19.40
2019-05-11T09:37:42.401Z,19.07
2019-05-11T09:40:12.393Z,18.73
2019-05-11T09:42:41.981Z,17.77
2019-05-11T09:45:11.703Z,17.00
2019-05-11T09:47:40.858Z,17.43
2019-05-11T09:50:11.995Z,18.87
2019-05-11T09:52:41.190Z,17.73
2019-05-11T09:55:11.317Z,16.67
2019-05-11T09:57:40.556Z,17.73
2019-05-11T10:00:10.673Z,18.27
2019-05-11T10:02:40.405Z,16.23
2019-05-11T10:05:10.347Z,15.70
2019-05-11T10:07:39.632Z,15.20
2019-05-11T10:10:09.718Z,15.93
2019-05-11T10:12:38.922Z,16.60
2019-05-11T10:15:09.168Z,15.70
2019-05-11T10:17:38.701Z,13.77
2019-05-11T10:20:09.325Z,12.97
2019-05-11T10:22:38.829Z,13.20
2019-05-11T10:25:09.298Z,11.93
2019-05-11T10:27:38.692Z,11.40
2019-05-11T10:30:08.349Z,10.70
2019-05-11T10:32:38.573Z,10.40
2019-05-11T10:35:08.305Z,9.80
2019-05-11T10:37:38.908Z,10.17
2019-05-11T10:40:09.787Z,11.37
2019-05-11T10:42:38.987Z,11.73
2019-05-11T10:45:09.045Z,11.30
2019-05-11T10:47:39.067Z,11.80
2019-05-11T10:50:09.103Z,12.20
2019-05-11T10:52:38.301Z,11.50
2019-05-11T10:55:08.787Z,11.27
2019-05-11T10:57:38.907Z,11.50
2019-05-11T11:00:10.525Z,10.73
2019-05-11T11:02:39.741Z,10.80
2019-05-11T11:05:09.707Z,9.53
2019-05-11T11:07:38.891Z,8.67
2019-05-11T11:10:09.100Z,8.20
2019-05-11T11:12:38.804Z,8.07
2019-05-11T11:15:08.487Z,7.17
2019-05-11T11:17:38.375Z,7.60
2019-05-11T11:20:08.884Z,6.83
2019-05-11T11:22:43.431Z,7.20
2019-05-11T11:25:09.889Z,6.40
2019-05-11T11:27:39.054Z,6.53
2019-05-11T11:30:09.355Z,6.00
2019-05-11T11:32:39.003Z,5.33
2019-05-11T11:35:08.777Z,5.80
2019-05-11T11:37:38.642Z,5.50
2019-05-11T11:40:08.975Z,4.77
2019-05-11T11:42:38.502Z,4.73
2019-05-11T11:45:08.956Z,4.80
2019-05-11T11:47:38.684Z,4.50
2019-05-11T11:50:09.120Z,3.90
2019-05-11T11:52:38.606Z,4.30
2019-05-11T11:55:08.512Z,4.60
2019-05-11T11:57:38.197Z,3.90
2019-05-11T12:00:09.169Z,3.60
2019-05-11T12:02:39.721Z,4.10
2019-05-11T12:05:09.062Z,4.53
2019-05-11T12:07:38.800Z,4.40
2019-05-11T12:10:09.215Z,4.30
2019-05-11T12:12:38.774Z,3.83
2019-05-11T12:15:09.050Z,4.17
2019-05-11T12:17:39.077Z,3.67
2019-05-11T12:20:09.133Z,3.77
2019-05-11T12:22:38.793Z,3.30
2019-05-11T12:25:08.771Z,3.40
2019-05-11T12:27:38.470Z,3.00
2019-05-11T12:30:09.184Z,3.90
2019-05-11T12:32:45.562Z,3.23
2019-05-11T12:35:14.892Z,3.10
2019-05-11T12:37:44.023Z,3.07
2019-05-11T12:40:15.026Z,3.30
2019-05-11T12:42:44.195Z,3.07
2019-05-11T12:45:13.670Z,3.27
2019-05-11T12:47:42.924Z,3.23
2019-05-11T12:50:14.051Z,3.00
2019-05-11T12:52:43.269Z,2.73
2019-05-11T12:55:13.630Z,2.97
2019-05-11T12:57:42.864Z,2.80
2019-05-11T13:00:12.862Z,3.10
2019-05-11T13:02:42.347Z,3.23
2019-05-11T13:05:11.899Z,2.70
2019-05-11T13:07:41.076Z,2.97
2019-05-11T13:10:10.532Z,2.87
2019-05-11T13:12:39.982Z,3.10
2019-05-11T13:15:09.455Z,2.80
2019-05-11T13:17:41.018Z,3.30
2019-05-11T13:20:12.681Z,2.57
2019-05-11T13:22:40.781Z,2.53
2019-05-11T13:25:10.444Z,2.80
2019-05-11T13:27:39.599Z,3.10
2019-05-11T13:30:09.998Z,3.00
2019-05-11T13:32:39.609Z,3.50
2019-05-11T13:35:09.362Z,2.33
2019-05-11T13:37:38.885Z,2.60
2019-05-11T13:40:09.000Z,2.77
2019-05-11T13:42:39.074Z,3.07
2019-05-11T13:45:09.278Z,3.03
2019-05-11T13:47:51.679Z,3.00
2019-05-11T13:50:10.081Z,2.00
2019-05-11T13:52:39.464Z,2.90
2019-05-11T13:55:10.548Z,2.87
2019-05-11T13:57:40.766Z,3.17
2019-05-11T14:00:11.962Z,2.23
2019-05-11T14:02:41.580Z,2.17
2019-05-11T14:05:11.184Z,2.60
2019-05-11T14:07:40.834Z,2.20
2019-05-11T14:10:10.395Z,2.50
2019-05-11T14:12:40.184Z,1.97
2019-05-11T14:15:09.637Z,2.67
2019-05-11T14:17:39.448Z,2.63
2019-05-11T14:20:09.285Z,2.70
2019-05-11T14:22:39.309Z,2.87
2019-05-11T14:25:08.778Z,2.40
2019-05-11T14:27:39.268Z,2.80
2019-05-11T14:30:10.204Z,2.60
2019-05-11T14:32:39.552Z,2.60
2019-05-11T14:35:12.064Z,2.77
2019-05-11T14:37:40.166Z,3.00
2019-05-11T14:40:09.975Z,3.03
2019-05-11T14:42:39.513Z,3.20
2019-05-11T14:45:09.027Z,2.60
2019-05-11T14:47:38.803Z,2.77
2019-05-11T14:50:09.168Z,3.10
2019-05-11T14:52:39.125Z,3.30
2019-05-11T14:55:09.163Z,2.80
2019-05-11T14:57:39.704Z,2.87
2019-05-11T15:00:10.655Z,2.67
2019-05-11T15:02:48.946Z,2.80
2019-05-11T15:05:18.503Z,2.93
2019-05-11T15:07:48.464Z,2.90
2019-05-11T15:10:19.272Z,2.63
2019-05-11T15:12:49.025Z,2.80
2019-05-11T15:15:19.748Z,2.43
2019-05-11T15:17:49.547Z,2.30
2019-05-11T15:20:19.176Z,3.00
2019-05-11T15:22:49.101Z,2.10
2019-05-11T15:25:19.945Z,3.00
2019-05-11T15:27:49.309Z,2.57
2019-05-11T15:30:18.751Z,3.17
2019-05-11T15:32:48.444Z,3.00
2019-05-11T15:35:18.615Z,2.80
2019-05-11T15:37:48.764Z,2.83
2019-05-11T15:40:19.237Z,2.33
2019-05-11T15:42:48.922Z,2.50
2019-05-11T15:45:20.018Z,1.77
2019-05-11T15:47:49.859Z,2.10
2019-05-11T15:50:21.236Z,2.10
2019-05-11T15:52:50.478Z,1.97
2019-05-11T15:55:21.010Z,2.00
2019-05-11T15:57:50.175Z,2.00
2019-05-11T16:00:20.385Z,2.60
2019-05-11T16:02:49.714Z,2.20
2019-05-11T16:05:19.965Z,2.23
2019-05-11T16:07:49.619Z,2.30
2019-05-11T16:10:19.831Z,2.53
2019-05-11T16:12:49.258Z,2.30
2019-05-11T16:15:19.850Z,2.50
2019-05-11T16:17:50.139Z,2.03
2019-05-11T16:20:19.681Z,2.20
2019-05-11T16:22:50.645Z,2.40
2019-05-11T16:25:20.278Z,2.10
2019-05-11T16:27:50.178Z,1.80
2019-05-11T16:30:21.685Z,2.23
2019-05-11T16:32:51.807Z,2.47
2019-05-11T16:35:21.008Z,1.93
2019-05-11T16:37:50.300Z,2.33
2019-05-11T16:40:20.781Z,2.43
2019-05-11T16:42:50.846Z,2.37
2019-05-11T16:45:23.626Z,2.60
2019-05-11T16:47:51.740Z,2.30
2019-05-11T16:50:20.977Z,2.27
2019-05-11T16:52:50.266Z,2.37
2019-05-11T16:55:19.506Z,2.03
2019-05-11T16:57:48.978Z,1.97
2019-05-11T17:00:19.320Z,2.30
2019-05-11T17:02:49.184Z,2.30
2019-05-11T17:05:26.623Z,1.97
2019-05-11T17:07:49.561Z,2.10
2019-05-11T17:10:19.384Z,2.13
2019-05-11T17:12:49.046Z,1.90
2019-05-11T17:15:18.883Z,2.30
2019-05-11T17:17:48.922Z,2.40
2019-05-11T17:20:19.147Z,2.20
2019-05-11T17:22:48.771Z,2.57
2019-05-11T17:25:19.228Z,1.93
2019-05-11T17:27:49.463Z,2.67
2019-05-11T17:30:20.010Z,2.00
2019-05-11T17:32:49.796Z,2.43
2019-05-11T17:35:19.420Z,1.63
2019-05-11T17:37:48.908Z,2.30
2019-05-11T17:40:23.154Z,2.53
2019-05-11T17:42:53.322Z,2.33
2019-05-11T17:45:21.198Z,2.30
2019-05-11T17:47:50.734Z,3.10
2019-05-11T17:50:20.258Z,3.30
2019-05-11T17:52:49.958Z,2.97
2019-05-11T17:55:19.462Z,2.40
2019-05-11T17:57:49.733Z,2.20
2019-05-11T18:00:20.524Z,2.17
2019-05-11T18:02:50.197Z,2.27
2019-05-11T18:05:19.723Z,2.53
2019-05-11T18:07:48.956Z,2.70
2019-05-11T18:10:18.495Z,2.23
2019-05-11T18:12:48.744Z,2.60
2019-05-11T18:15:23.274Z,2.60
2019-05-11T18:17:49.975Z,2.23
2019-05-11T18:20:21.711Z,2.23
2019-05-11T18:22:50.688Z,2.47
2019-05-11T18:25:20.060Z,2.63
2019-05-11T18:27:49.680Z,2.33
2019-05-11T18:30:19.071Z,2.33
2019-05-11T18:32:49.301Z,2.60
2019-05-11T18:35:19.408Z,2.57
2019-05-11T18:37:49.162Z,2.50
2019-05-11T18:40:19.159Z,2.80
2019-05-11T18:42:49.198Z,2.63
2019-05-11T18:45:19.461Z,2.53
2019-05-11T18:47:49.368Z,2.50
2019-05-11T18:50:29.736Z,2.43
2019-05-11T18:52:50.540Z,2.63
2019-05-11T18:55:19.817Z,2.50
2019-05-11T18:57:49.436Z,2.30
2019-05-11T19:00:19.983Z,2.50
2019-05-11T19:02:49.887Z,2.30
2019-05-11T19:05:19.903Z,2.43
2019-05-11T19:07:49.082Z,2.70
2019-05-11T19:10:18.327Z,2.63
2019-05-11T19:12:48.917Z,2.33
2019-05-11T19:15:19.136Z,2.60
2019-05-11T19:17:49.192Z,2.80
2019-05-11T19:20:18.980Z,3.43
2019-05-11T19:22:48.232Z,2.33
2019-05-11T19:25:18.234Z,2.27
2019-05-11T19:27:50.167Z,2.60
2019-05-11T19:30:19.057Z,2.40
2019-05-11T19:32:48.803Z,3.10
2019-05-11T19:35:21.301Z,3.03
2019-05-11T19:37:49.856Z,2.80
2019-05-11T19:40:19.173Z,2.93
2019-05-11T19:42:55.296Z,2.93
2019-05-11T19:45:24.803Z,2.97
2019-05-11T19:47:54.982Z,2.57
2019-05-11T19:50:24.448Z,3.13
2019-05-11T19:52:53.642Z,3.23
2019-05-11T19:55:23.242Z,3.00
2019-05-11T19:58:01.185Z,3.00
2019-05-11T20:00:30.493Z,2.83
2019-05-11T20:02:59.875Z,3.37
2019-05-11T20:05:29.085Z,3.03
2019-05-11T20:07:59.005Z,3.33
2019-05-11T20:10:29.647Z,2.90
2019-05-11T20:13:10.448Z,3.30
2019-05-11T20:15:39.900Z,2.77
2019-05-11T20:18:18.396Z,2.87
2019-05-11T20:20:53.009Z,3.10
2019-05-11T20:23:22.615Z,2.37
2019-05-11T20:26:08.904Z,3.80
2019-05-11T20:28:38.301Z,3.27
2019-05-11T20:31:08.144Z,3.40
2019-05-11T20:33:38.497Z,3.33
2019-05-11T20:36:08.695Z,2.80
2019-05-11T20:38:38.534Z,3.50
2019-05-11T20:41:08.527Z,3.00
2019-05-11T20:43:37.756Z,3.30
2019-05-11T20:46:08.241Z,3.23
2019-05-11T20:48:38.221Z,3.00
2019-05-11T20:51:08.245Z,3.30
2019-05-11T20:53:38.771Z,3.20
2019-05-11T20:56:08.677Z,3.13
2019-05-11T20:58:59.834Z,3.10
2019-05-11T21:01:29.383Z,3.33
2019-05-11T21:03:58.877Z,2.90
2019-05-11T21:06:29.493Z,3.20
2019-05-11T21:08:59.334Z,3.80
2019-05-11T21:11:28.655Z,2.83
2019-05-11T21:13:58.207Z,3.07
2019-05-11T21:16:27.832Z,2.83
2019-05-11T21:18:58.028Z,2.77
2019-05-11T21:21:27.888Z,2.90
2019-05-11T21:23:58.348Z,3.07
2019-05-11T21:26:28.228Z,3.10
2019-05-11T21:28:58.177Z,3.00
2019-05-11T21:31:28.991Z,3.53
2019-05-11T21:34:01.271Z,2.83
2019-05-11T21:36:30.539Z,3.20
2019-05-11T21:38:59.833Z,3.20
2019-05-11T21:41:31.032Z,3.17
2019-05-11T21:44:01.004Z,3.30
2019-05-11T21:46:30.568Z,2.97
2019-05-11T21:49:00.072Z,3.57
2019-05-11T21:51:29.312Z,3.50
2019-05-11T21:53:58.488Z,3.43
2019-05-11T21:56:28.809Z,3.30
2019-05-11T21:58:58.319Z,3.23
2019-05-11T22:01:28.132Z,3.30
2019-05-11T22:03:59.516Z,3.70
2019-05-11T22:06:30.530Z,3.63
2019-05-11T22:08:59.852Z,3.63
2019-05-11T22:11:29.027Z,4.30
2019-05-11T22:13:58.205Z,4.03
2019-05-11T22:16:29.850Z,3.97
2019-05-11T22:18:58.382Z,4.00
2019-05-11T22:21:28.045Z,3.83
2019-05-11T22:23:58.488Z,3.97
2019-05-11T22:26:28.590Z,4.23
2019-05-11T22:28:58.060Z,4.20
2019-05-11T22:31:28.076Z,4.57
2019-05-11T22:33:58.301Z,4.20
2019-05-11T22:36:28.385Z,4.13
2019-05-11T22:38:58.728Z,4.03
2019-05-11T22:41:28.309Z,4.13
2019-05-11T22:43:57.882Z,3.90
2019-05-11T22:46:28.087Z,4.37
2019-05-11T22:48:58.283Z,4.70
2019-05-11T22:51:28.836Z,4.17
2019-05-11T22:53:59.173Z,4.40
2019-05-11T22:56:28.915Z,4.60
2019-05-11T22:58:58.761Z,4.30
2019-05-11T23:01:28.835Z,4.63
2019-05-11T23:03:58.478Z,4.00
2019-05-11T23:06:27.765Z,4.30
2019-05-11T23:08:58.712Z,3.93
2019-05-11T23:11:34.467Z,4.20
2019-05-11T23:14:03.642Z,4.10
2019-05-11T23:16:32.880Z,4.27
2019-05-11T23:19:02.313Z,4.00
2019-05-11T23:21:31.570Z,4.20
2019-05-11T23:24:00.722Z,4.80
2019-05-11T23:26:30.542Z,4.23
2019-05-11T23:28:59.706Z,4.33
2019-05-11T23:31:28.865Z,4.33
2019-05-11T23:33:58.358Z,4.57
2019-05-11T23:36:28.292Z,4.73
2019-05-11T23:38:58.559Z,4.40
2019-05-11T23:41:28.797Z,4.73
2019-05-11T23:43:58.622Z,4.53
2019-05-11T23:46:28.636Z,4.63
2019-05-11T23:48:58.442Z,4.63
2019-05-11T23:51:28.411Z,5.00
2019-05-11T23:53:58.811Z,5.33
2019-05-11T23:56:28.379Z,4.73
2019-05-11T23:58:57.977Z,4.80
